createdAt,value
2022-10-22T00:02:44.000Z,12.87
2022-10-22T00:07:49.194Z,12.82
2022-10-22T00:12:50.905Z,12.79
2022-10-22T00:17:54.911Z,12.78
2022-10-22T00:22:56.738Z,12.75
2022-10-22T00:27:58.415Z,12.72
2022-10-22T00:33:03.414Z,12.71
2022-10-22T00:38:05.624Z,12.68
2022-10-22T00:43:11.334Z,12.63
2022-10-22T00:48:28.499Z,12.56
2022-10-22T00:53:36.709Z,12.54
2022-10-22T00:58:48.028Z,12.49
2022-10-22T01:03:50.330Z,12.44
2022-10-22T01:09:03.810Z,12.42
2022-10-22T01:14:19.300Z,12.37
2022-10-22T01:19:29.644Z,12.34
2022-10-22T01:24:52.564Z,12.33
2022-10-22T01:29:58.857Z,12.32
2022-10-22T01:35:03.406Z,12.29
2022-10-22T01:40:06.361Z,12.26
2022-10-22T01:45:14.166Z,12.24
2022-10-22T01:50:27.989Z,12.16
2022-10-22T01:55:46.533Z,12.07
2022-10-22T02:00:59.072Z,12.02
2022-10-22T02:06:09.959Z,12.01
2022-10-22T02:11:17.048Z,12.00
2022-10-22T02:16:29.408Z,12.01
2022-10-22T02:21:31.190Z,12.01
2022-10-22T02:26:40.788Z,11.99
2022-10-22T02:31:44.636Z,11.98
2022-10-22T02:36:49.669Z,11.98
2022-10-22T02:41:52.214Z,12.00
2022-10-22T02:46:53.886Z,12.01
2022-10-22T02:51:57.971Z,12.04
2022-10-22T02:57:04.356Z,12.06
2022-10-22T03:02:08.636Z,12.05
2022-10-22T03:07:12.878Z,12.00
2022-10-22T03:12:14.578Z,12.02
2022-10-22T03:17:18.494Z,12.02
2022-10-22T03:22:25.492Z,12.05
2022-10-22T03:27:31.782Z,12.05
2022-10-22T03:32:36.593Z,12.07
2022-10-22T03:37:38.876Z,12.10
2022-10-22T03:42:43.484Z,12.13
2022-10-22T03:47:45.157Z,12.16
2022-10-22T03:52:47.811Z,12.17
2022-10-22T03:57:51.759Z,12.18
2022-10-22T04:02:53.425Z,12.19
2022-10-22T04:07:58.046Z,12.18
2022-10-22T04:13:04.453Z,12.17
2022-10-22T04:18:06.107Z,12.14
2022-10-22T04:23:10.272Z,12.11
2022-10-22T04:28:11.891Z,12.09
2022-10-22T04:33:15.584Z,12.04
2022-10-22T04:38:19.498Z,12.00
2022-10-22T04:43:25.847Z,11.96
2022-10-22T04:48:28.668Z,11.93
2022-10-22T04:53:35.624Z,11.91
2022-10-22T04:58:39.454Z,11.90
2022-10-22T05:03:41.736Z,11.87
2022-10-22T05:08:52.845Z,11.87
2022-10-22T05:13:58.143Z,11.84
2022-10-22T05:19:04.643Z,11.82
2022-10-22T05:24:06.793Z,11.80
2022-10-22T05:29:11.164Z,11.80
2022-10-22T05:34:13.414Z,11.78
2022-10-22T05:39:21.126Z,11.74
2022-10-22T05:44:22.796Z,11.70
2022-10-22T05:49:27.671Z,11.66
2022-10-22T05:54:31.967Z,11.64
2022-10-22T05:59:36.236Z,11.61
2022-10-22T06:04:40.124Z,11.63
2022-10-22T06:09:41.805Z,11.67
2022-10-22T06:14:43.488Z,11.68
2022-10-22T06:19:47.935Z,11.69
2022-10-22T06:24:54.615Z,11.71
2022-10-22T06:29:58.657Z,11.72
2022-10-22T06:35:00.410Z,11.74
2022-10-22T06:40:04.876Z,11.80
2022-10-22T06:45:09.655Z,11.84
2022-10-22T06:50:13.640Z,11.88
2022-10-22T06:55:19.942Z,11.95
2022-10-22T07:00:22.462Z,12.04
2022-10-22T07:05:28.477Z,12.11
2022-10-22T07:10:37.546Z,12.20
2022-10-22T07:15:41.735Z,12.27
2022-10-22T07:20:47.402Z,12.35
2022-10-22T07:25:51.606Z,12.44
2022-10-22T07:30:58.252Z,12.50
2022-10-22T07:36:05.335Z,12.49
2022-10-22T07:41:10.148Z,12.51
2022-10-22T07:46:12.187Z,12.51
2022-10-22T07:51:16.917Z,12.50
2022-10-22T07:56:20.691Z,12.52
2022-10-22T08:01:22.451Z,12.55
2022-10-22T08:06:24.214Z,12.59
2022-10-22T08:11:26.971Z,12.66
2022-10-22T08:16:33.344Z,12.81
2022-10-22T08:21:37.551Z,12.93
2022-10-22T08:26:40.246Z,13.07
2022-10-22T08:31:44.268Z,13.28
2022-10-22T08:36:46.375Z,13.54
2022-10-22T08:41:50.951Z,13.79
2022-10-22T08:47:07.117Z,13.99
2022-10-22T08:52:16.591Z,14.24
2022-10-22T08:57:42.887Z,14.45
2022-10-22T09:03:10.453Z,14.57
2022-10-22T09:08:18.092Z,14.66
2022-10-22T09:13:21.663Z,14.92
2022-10-22T09:18:42.028Z,15.13
2022-10-22T09:24:04.773Z,15.33
2022-10-22T09:29:07.567Z,15.49
2022-10-22T09:34:09.385Z,15.63
2022-10-22T09:39:34.361Z,15.68
2022-10-22T09:44:37.856Z,15.74
2022-10-22T09:49:39.516Z,15.82
2022-10-22T09:54:42.841Z,15.90
2022-10-22T09:59:48.485Z,15.98
2022-10-22T10:04:57.381Z,16.08
2022-10-22T10:09:59.385Z,15.99
2022-10-22T10:15:19.133Z,16.00
2022-10-22T10:21:01.469Z,16.04
2022-10-22T10:26:35.884Z,16.09
2022-10-22T10:32:01.914Z,16.15
2022-10-22T10:37:29.965Z,16.13
2022-10-22T10:42:43.920Z,16.03
2022-10-22T10:48:00.405Z,15.97
2022-10-22T10:53:10.265Z,16.03
2022-10-22T10:58:14.921Z,16.13
2022-10-22T11:04:02.112Z,16.30
2022-10-22T11:09:15.776Z,16.32
2022-10-22T11:14:31.304Z,16.35
2022-10-22T11:19:51.675Z,16.47
2022-10-22T11:25:17.208Z,16.64
2022-10-22T11:30:23.501Z,16.86
2022-10-22T11:35:28.382Z,16.84
2022-10-22T11:40:36.538Z,16.85
2022-10-22T11:45:41.397Z,17.03
2022-10-22T11:50:48.945Z,17.28
2022-10-22T11:55:52.834Z,17.64
2022-10-22T12:01:30.543Z,17.82
2022-10-22T12:06:56.939Z,17.45
2022-10-22T12:12:10.780Z,17.41
2022-10-22T12:17:18.148Z,17.44
2022-10-22T12:22:25.805Z,17.37
2022-10-22T12:27:39.154Z,17.24
2022-10-22T12:32:43.839Z,17.21
2022-10-22T12:37:50.770Z,17.24
2022-10-22T12:43:15.965Z,17.10
2022-10-22T12:48:24.811Z,16.97
2022-10-22T12:53:55.748Z,16.87
2022-10-22T12:59:00.102Z,16.72
2022-10-22T13:04:14.413Z,16.68
2022-10-22T13:09:23.962Z,16.57
2022-10-22T13:14:31.784Z,16.43
2022-10-22T13:19:38.917Z,16.50
2022-10-22T13:24:49.078Z,16.61
2022-10-22T13:29:53.209Z,16.42
2022-10-22T13:34:58.520Z,16.53
2022-10-22T13:40:11.396Z,16.55
2022-10-22T13:45:14.465Z,16.49
2022-10-22T13:50:22.957Z,16.27
2022-10-22T13:55:27.222Z,16.21
2022-10-22T14:00:33.731Z,16.26
2022-10-22T14:05:35.555Z,16.19
2022-10-22T14:10:39.489Z,16.16
2022-10-22T14:15:47.244Z,16.06
2022-10-22T14:21:04.804Z,15.93
2022-10-22T14:26:18.114Z,15.84
2022-10-22T14:31:24.024Z,15.83
2022-10-22T14:36:28.092Z,15.82
2022-10-22T14:41:32.107Z,15.75
2022-10-22T14:46:36.088Z,15.67
2022-10-22T14:51:38.066Z,15.62
2022-10-22T14:56:42.277Z,15.58
2022-10-22T15:01:51.028Z,15.55
2022-10-22T15:06:56.336Z,15.54
2022-10-22T15:12:00.464Z,15.53
2022-10-22T15:17:02.167Z,15.54
2022-10-22T15:22:05.815Z,15.57
2022-10-22T15:27:08.088Z,15.66
2022-10-22T15:32:12.134Z,15.70
2022-10-22T15:37:19.542Z,15.65
2022-10-22T15:42:21.257Z,15.68
2022-10-22T15:47:24.347Z,15.66
2022-10-22T15:52:28.927Z,15.61
2022-10-22T15:57:30.726Z,15.48
2022-10-22T16:02:35.207Z,15.36
2022-10-22T16:07:39.438Z,15.24
2022-10-22T16:12:41.861Z,15.16
2022-10-22T16:17:46.098Z,15.04
2022-10-22T16:22:55.350Z,14.99
2022-10-22T16:27:59.659Z,14.97
2022-10-22T16:33:03.434Z,14.92
2022-10-22T16:38:05.468Z,14.86
2022-10-22T16:43:07.246Z,14.76
2022-10-22T16:48:11.735Z,14.70
2022-10-22T16:53:13.420Z,14.63
2022-10-22T16:58:17.776Z,14.59
2022-10-22T17:03:24.536Z,14.54
2022-10-22T17:08:31.619Z,14.48
2022-10-22T17:13:36.278Z,14.40
2022-10-22T17:18:41.595Z,14.31
2022-10-22T17:23:46.158Z,14.25
2022-10-22T17:28:51.165Z,14.22
2022-10-22T17:33:54.927Z,14.20
2022-10-22T17:39:01.989Z,14.15
2022-10-22T17:44:09.083Z,14.08
2022-10-22T17:49:22.861Z,13.98
2022-10-22T17:54:29.284Z,13.91
2022-10-22T17:59:33.598Z,13.85
2022-10-22T18:04:37.588Z,13.75
2022-10-22T18:09:40.487Z,13.67
2022-10-22T18:14:44.818Z,13.65
2022-10-22T18:19:50.879Z,13.58
2022-10-22T18:24:57.175Z,13.54
2022-10-22T18:29:58.884Z,13.45
2022-10-22T18:35:03.046Z,13.39
2022-10-22T18:40:06.189Z,13.35
2022-10-22T18:45:08.143Z,13.30
2022-10-22T18:50:12.773Z,13.26
2022-10-22T18:55:19.436Z,13.17
2022-10-22T19:00:21.109Z,13.12
2022-10-22T19:05:22.914Z,13.04
2022-10-22T19:10:27.994Z,12.98
2022-10-22T19:15:32.379Z,12.90
2022-10-22T19:20:35.178Z,12.80
2022-10-22T19:25:37.370Z,12.72
2022-10-22T19:30:44.727Z,12.66
2022-10-22T19:35:46.477Z,12.60
2022-10-22T19:40:48.218Z,12.52
2022-10-22T19:45:49.974Z,12.44
2022-10-22T19:50:59.657Z,12.38
2022-10-22T19:56:06.786Z,12.32
2022-10-22T20:01:16.671Z,12.29
2022-10-22T20:06:22.187Z,12.24
2022-10-22T20:11:42.952Z,12.16
2022-10-22T20:16:44.769Z,12.11
2022-10-22T20:21:50.533Z,12.05
2022-10-22T20:26:52.329Z,12.01
2022-10-22T20:31:56.403Z,12.00
2022-10-22T20:37:01.122Z,11.91
2022-10-22T20:42:03.402Z,11.85
2022-10-22T20:47:05.194Z,11.82
2022-10-22T20:52:09.234Z,11.78
2022-10-22T20:57:15.650Z,11.71
2022-10-22T21:02:19.663Z,11.63
2022-10-22T21:07:25.037Z,11.58
2022-10-22T21:12:31.928Z,11.52
2022-10-22T21:17:33.638Z,11.50
2022-10-22T21:22:40.819Z,11.42
2022-10-22T21:27:45.042Z,11.37
2022-10-22T21:32:46.759Z,11.33
2022-10-22T21:37:48.509Z,11.29
2022-10-22T21:42:50.482Z,11.20
2022-10-22T21:47:55.123Z,11.20
2022-10-22T21:53:01.754Z,11.17
2022-10-22T21:58:03.445Z,11.17
2022-10-22T22:03:07.036Z,11.20
2022-10-22T22:08:11.066Z,11.19
2022-10-22T22:13:12.831Z,11.12
2022-10-22T22:18:14.496Z,11.07
2022-10-22T22:23:20.877Z,11.01
2022-10-22T22:28:27.521Z,10.92
2022-10-22T22:33:29.236Z,10.91
2022-10-22T22:38:30.906Z,10.87
2022-10-22T22:43:35.454Z,10.82
2022-10-22T22:48:42.936Z,10.82
2022-10-22T22:53:44.898Z,10.76
2022-10-22T22:58:46.995Z,10.72
2022-10-22T23:03:56.087Z,10.79
2022-10-22T23:09:00.317Z,10.78
2022-10-22T23:14:04.619Z,10.74
2022-10-22T23:19:06.353Z,10.72
2022-10-22T23:24:13.003Z,10.70
2022-10-22T23:29:26.168Z,10.56
2022-10-22T23:34:29.019Z,10.49
2022-10-22T23:39:33.905Z,10.41
2022-10-22T23:44:35.593Z,10.40
2022-10-22T23:49:39.945Z,10.35
2022-10-22T23:54:41.749Z,10.41
2022-10-22T23:59:43.402Z,10.42
